Time;durP1;ratioP1;P1;durP2;ratioP2;P2;SDS_P1;SDS_P2;PMS_P1;PMS_P2;Temp;Humidity;BMP_temperature;BMP_pressure;BME280_temperature;BME280_humidity;BME280_pressure;Samples;Min_cycle;Max_cycle;Signal;HPM_P1;HPM_P2
2023/01/19 00:00:48;;;;;;;34.47;21.92;;;;;;;;;;7363307;19;20317;-79
2023/01/19 00:03:14;;;;;;;35.92;21.45;;;;;;;;;;7358493;19;20010;-77
2023/01/19 00:05:40;;;;;;;30.95;20.58;;;;;;;;;;7374629;19;20023;-78
2023/01/19 00:08:13;;;;;;;34.40;20.55;;;;;;;;;;7370771;19;20022;-77
2023/01/19 00:10:38;;;;;;;34.03;21.85;;;;;;;;;;7372158;19;20018;-77
2023/01/19 00:13:04;;;;;;;35.65;20.60;;;;;;;;;;7371973;19;20440;-79
2023/01/19 00:15:29;;;;;;;33.30;21.05;;;;;;;;;;7370254;19;20430;-77
2023/01/19 00:17:54;;;;;;;33.95;20.73;;;;;;;;;;7374460;19;20022;-78
2023/01/19 00:20:19;;;;;;;36.22;21.48;;;;;;;;;;7372009;19;20938;-77
2023/01/19 00:22:49;;;;;;;31.80;20.52;;;;;;;;;;7367999;19;20026;-77
2023/01/19 00:25:14;;;;;;;39.33;21.63;;;;;;;;;;7366072;19;20312;-78
2023/01/19 00:27:39;;;;;;;35.15;22.02;;;;;;;;;;7371634;19;20013;-77
2023/01/19 00:30:05;;;;;;;38.58;21.70;;;;;;;;;;7371249;19;20828;-78
2023/01/19 00:32:30;;;;;;;38.30;21.48;;;;;;;;;;7368348;19;20056;-78
2023/01/19 00:34:55;;;;;;;37.70;22.02;;;;;;;;;;7370857;19;20040;-77
2023/01/19 00:37:21;;;;;;;33.15;21.83;;;;;;;;;;7369770;19;20052;-77
2023/01/19 00:39:46;;;;;;;37.67;22.30;;;;;;;;;;7371746;19;20026;-77
2023/01/19 00:44:55;;;;;;;;;;;;;;;;;;7372569;19;20090;-77
2023/01/19 00:47:21;;;;;;;35.25;22.20;;;;;;;;;;7366444;19;20232;-79
2023/01/19 00:49:46;;;;;;;34.45;22.73;;;;;;;;;;7371038;19;20111;-77
2023/01/19 00:52:11;;;;;;;40.78;24.40;;;;;;;;;;7369105;19;20075;-78
2023/01/19 00:54:36;;;;;;;37.65;22.35;;;;;;;;;;7366883;19;20692;-77
2023/01/19 00:57:02;;;;;;;36.47;22.00;;;;;;;;;;7371028;19;20363;-77
2023/01/19 00:59:27;;;;;;;36.22;22.25;;;;;;;;;;7366956;19;20354;-78
2023/01/19 01:01:52;;;;;;;34.15;22.38;;;;;;;;;;7374293;19;20027;-77
2023/01/19 01:04:18;;;;;;;37.45;23.15;;;;;;;;;;7372443;19;20072;-77
2023/01/19 01:06:43;;;;;;;36.17;22.50;;;;;;;;;;7365562;19;20023;-77
2023/01/19 01:09:10;;;;;;;38.40;23.17;;;;;;;;;;7368119;19;20034;-77
2023/01/19 01:11:38;;;;;;;37.22;23.30;;;;;;;;;;7366801;19;20044;-78
2023/01/19 01:14:04;;;;;;;38.65;25.23;;;;;;;;;;7369881;19;20108;-77
2023/01/19 01:16:29;;;;;;;41.38;25.80;;;;;;;;;;7363319;19;20034;-77
2023/01/19 01:18:54;;;;;;;42.33;24.35;;;;;;;;;;7366866;19;20086;-77
2023/01/19 01:21:19;;;;;;;41.38;24.58;;;;;;;;;;7351864;19;20025;-77
2023/01/19 01:23:44;;;;;;;40.30;24.77;;;;;;;;;;7364800;19;20007;-80
2023/01/19 01:26:10;;;;;;;39.75;25.52;;;;;;;;;;7364316;19;20036;-79
2023/01/19 01:28:35;;;;;;;42.70;25.98;;;;;;;;;;7366500;19;20007;-77
2023/01/19 01:31:00;;;;;;;41.30;25.98;;;;;;;;;;7369837;19;20031;-78
2023/01/19 01:33:26;;;;;;;40.80;25.17;;;;;;;;;;7366919;19;20024;-79
2023/01/19 01:35:51;;;;;;;41.92;25.98;;;;;;;;;;7359025;19;20014;-77
2023/01/19 01:38:16;;;;;;;42.60;26.13;;;;;;;;;;7369027;19;20095;-77
2023/01/19 01:40:41;;;;;;;42.67;27.25;;;;;;;;;;7360405;19;20443;-76
2023/01/19 01:43:14;;;;;;;40.83;25.73;;;;;;;;;;7365074;19;20117;-76
2023/01/19 01:45:40;;;;;;;41.85;27.17;;;;;;;;;;7366243;19;20022;-79
2023/01/19 01:48:14;;;;;;;44.97;27.30;;;;;;;;;;7367359;19;20462;-77
2023/01/19 01:53:33;;;;;;;43.25;28.02;;;;;;;;;;7360535;19;20015;-77
2023/01/19 01:55:59;;;;;;;48.35;28.30;;;;;;;;;;7364455;19;20022;-78
2023/01/19 01:58:24;;;;;;;48.38;27.65;;;;;;;;;;7357107;19;20125;-79
2023/01/19 02:03:34;;;;;;;43.40;26.58;;;;;;;;;;7361678;19;20086;-78
2023/01/19 02:06:00;;;;;;;47.17;28.40;;;;;;;;;;7354554;19;20071;-78
2023/01/19 02:14:14;;;;;;;42.00;26.52;;;;;;;;;;7361517;19;20010;-77
2023/01/19 02:16:40;;;;;;;44.42;26.85;;;;;;;;;;7362639;19;20471;-78
2023/01/19 02:19:07;;;;;;;45.33;27.50;;;;;;;;;;7365762;19;20102;-77
2023/01/19 02:21:59;;;;;;;42.03;25.98;;;;;;;;;;7304791;19;20015;-76
2023/01/19 02:24:24;;;;;;;40.92;25.25;;;;;;;;;;7288688;19;20082;-79
2023/01/19 02:26:50;;;;;;;40.47;25.48;;;;;;;;;;7283783;19;20114;-78
2023/01/19 02:29:17;;;;;;;44.15;24.45;;;;;;;;;;7290394;19;20006;-79
2023/01/19 02:31:44;;;;;;;39.55;24.55;;;;;;;;;;7293752;19;20003;-79
2023/01/19 02:34:10;;;;;;;43.40;26.10;;;;;;;;;;7294963;19;20424;-79
2023/01/19 02:36:42;;;;;;;40.10;24.80;;;;;;;;;;7289801;19;20842;-78
2023/01/19 02:39:07;;;;;;;42.03;24.90;;;;;;;;;;7293655;19;21047;-78
2023/01/19 02:41:35;;;;;;;44.25;25.83;;;;;;;;;;7292186;19;20447;-77
2023/01/19 02:44:00;;;;;;;43.20;26.60;;;;;;;;;;7292242;19;20494;-79
2023/01/19 02:46:26;;;;;;;43.00;26.90;;;;;;;;;;7299279;19;20084;-79
2023/01/19 02:48:51;;;;;;;39.08;26.05;;;;;;;;;;7294199;19;20395;-78
2023/01/19 02:51:19;;;;;;;44.80;26.45;;;;;;;;;;7291359;19;20016;-78
2023/01/19 02:54:00;;;;;;;43.97;26.48;;;;;;;;;;7291187;19;20018;-77
2023/01/19 02:56:31;;;;;;;43.00;26.88;;;;;;;;;;7294833;19;20635;-77
2023/01/19 02:59:03;;;;;;;45.03;27.55;;;;;;;;;;7299401;19;20268;-79
2023/01/19 03:01:31;;;;;;;48.65;28.48;;;;;;;;;;7284890;19;19994;-81
2023/01/19 03:04:17;;;;;;;52.50;28.98;;;;;;;;;;7293647;19;20253;-81
2023/01/19 03:06:52;;;;;;;48.90;29.52;;;;;;;;;;7298642;19;20044;-78
2023/01/19 03:09:29;;;;;;;50.55;29.05;;;;;;;;;;7297210;19;20711;-79
2023/01/19 03:12:08;;;;;;;46.05;28.13;;;;;;;;;;7299744;19;20220;-80
2023/01/19 03:14:37;;;;;;;43.38;27.23;;;;;;;;;;7292094;19;20018;-76
2023/01/19 03:17:04;;;;;;;43.42;26.75;;;;;;;;;;7300780;19;20406;-79
2023/01/19 03:19:35;;;;;;;43.35;27.15;;;;;;;;;;7298411;19;20471;-78
2023/01/19 03:22:02;;;;;;;45.42;27.55;;;;;;;;;;7364302;19;20014;-76
2023/01/19 03:24:29;;;;;;;46.83;27.45;;;;;;;;;;7371367;19;20030;-77
2023/01/19 03:27:00;;;;;;;45.47;27.13;;;;;;;;;;7368197;19;20006;-77
2023/01/19 03:29:27;;;;;;;41.13;26.63;;;;;;;;;;7373886;19;20022;-77
2023/01/19 03:31:53;;;;;;;46.03;26.80;;;;;;;;;;7366501;19;20140;-78
2023/01/19 03:34:21;;;;;;;44.00;26.33;;;;;;;;;;7370194;19;20014;-78
2023/01/19 03:36:51;;;;;;;44.45;25.50;;;;;;;;;;7364562;19;20010;-77
2023/01/19 03:39:20;;;;;;;44.25;26.13;;;;;;;;;;7371344;19;20048;-78
2023/01/19 03:41:47;;;;;;;43.53;26.83;;;;;;;;;;7370111;19;20006;-77
2023/01/19 03:44:12;;;;;;;41.03;26.52;;;;;;;;;;7365137;19;20018;-76
2023/01/19 03:46:38;;;;;;;44.45;26.08;;;;;;;;;;7369426;19;20003;-78
2023/01/19 03:49:03;;;;;;;41.53;25.92;;;;;;;;;;7372129;19;20013;-78
2023/01/19 03:51:28;;;;;;;48.50;27.27;;;;;;;;;;7361418;19;20006;-78
2023/01/19 03:53:54;;;;;;;41.00;24.90;;;;;;;;;;7368177;19;20014;-77
2023/01/19 03:56:23;;;;;;;43.72;25.77;;;;;;;;;;7370624;19;20030;-78
2023/01/19 03:58:49;;;;;;;39.20;24.70;;;;;;;;;;7370308;19;20123;-76
2023/01/19 04:01:14;;;;;;;43.85;25.33;;;;;;;;;;7365189;19;20007;-76
2023/01/19 04:03:40;;;;;;;40.00;24.58;;;;;;;;;;7362803;19;20006;-77
2023/01/19 04:06:06;;;;;;;41.15;24.88;;;;;;;;;;7367729;19;20034;-76
2023/01/19 04:08:31;;;;;;;36.50;24.27;;;;;;;;;;7370188;19;20034;-77
2023/01/19 04:10:56;;;;;;;40.25;23.40;;;;;;;;;;7361538;19;19998;-80
2023/01/19 04:13:22;;;;;;;41.67;24.15;;;;;;;;;;7368981;19;20019;-77
2023/01/19 04:15:47;;;;;;;40.80;23.00;;;;;;;;;;7366519;19;20006;-76
2023/01/19 04:18:12;;;;;;;36.58;22.52;;;;;;;;;;7369245;19;20070;-76
2023/01/19 04:20:37;;;;;;;38.20;22.63;;;;;;;;;;7352185;19;20011;-77
2023/01/19 04:23:04;;;;;;;37.38;22.45;;;;;;;;;;7368140;19;20391;-77
2023/01/19 04:25:29;;;;;;;33.63;21.63;;;;;;;;;;7367817;19;20312;-76
2023/01/19 04:27:57;;;;;;;39.95;21.85;;;;;;;;;;7368455;19;20324;-77
2023/01/19 04:30:22;;;;;;;36.47;21.60;;;;;;;;;;7368957;19;20366;-76
2023/01/19 04:32:47;;;;;;;34.90;20.67;;;;;;;;;;7366697;19;20044;-76
2023/01/19 04:35:12;;;;;;;33.20;20.70;;;;;;;;;;7367635;19;20011;-77
2023/01/19 04:37:37;;;;;;;37.28;22.63;;;;;;;;;;7367386;19;20010;-77
2023/01/19 04:40:03;;;;;;;33.53;20.77;;;;;;;;;;7371780;19;20071;-77
2023/01/19 04:42:28;;;;;;;34.45;21.17;;;;;;;;;;7371139;19;20339;-76
2023/01/19 04:44:53;;;;;;;36.92;22.15;;;;;;;;;;7369219;19;20026;-77
2023/01/19 04:47:18;;;;;;;30.52;19.80;;;;;;;;;;7370582;19;20045;-77
2023/01/19 04:49:44;;;;;;;35.80;21.35;;;;;;;;;;7365614;19;20320;-79
2023/01/19 04:52:09;;;;;;;33.25;21.77;;;;;;;;;;7366326;19;20445;-77
2023/01/19 04:54:35;;;;;;;36.22;21.50;;;;;;;;;;7367568;19;20021;-78
2023/01/19 04:57:00;;;;;;;34.35;21.40;;;;;;;;;;7367713;19;20106;-76
2023/01/19 04:59:25;;;;;;;36.17;21.33;;;;;;;;;;7370551;19;20128;-78
2023/01/19 05:01:50;;;;;;;32.40;20.42;;;;;;;;;;7363400;19;20015;-76
2023/01/19 05:04:16;;;;;;;35.03;21.58;;;;;;;;;;7369402;19;20454;-76
2023/01/19 05:06:41;;;;;;;35.95;21.27;;;;;;;;;;7360261;19;20009;-79
2023/01/19 05:09:07;;;;;;;32.38;20.48;;;;;;;;;;7368323;19;20463;-78
2023/01/19 05:11:33;;;;;;;33.80;21.38;;;;;;;;;;7368225;19;20018;-78
2023/01/19 05:13:58;;;;;;;33.15;20.00;;;;;;;;;;7368115;19;20115;-76
2023/01/19 05:16:23;;;;;;;32.60;19.45;;;;;;;;;;7366697;19;20003;-78
2023/01/19 05:18:49;;;;;;;32.28;19.80;;;;;;;;;;7366526;19;20610;-77
2023/01/19 05:21:14;;;;;;;31.70;19.05;;;;;;;;;;7360983;19;20019;-77
2023/01/19 05:23:39;;;;;;;31.25;18.60;;;;;;;;;;7364039;19;20011;-77
2023/01/19 05:26:05;;;;;;;30.27;18.42;;;;;;;;;;7367189;19;20034;-76
2023/01/19 05:28:31;;;;;;;30.23;17.75;;;;;;;;;;7368166;19;20017;-76
2023/01/19 05:30:56;;;;;;;30.98;17.75;;;;;;;;;;7364006;19;20380;-77
2023/01/19 05:33:21;;;;;;;28.67;17.27;;;;;;;;;;7365086;19;20022;-76
2023/01/19 05:35:53;;;;;;;30.60;17.77;;;;;;;;;;7363611;19;20444;-77
2023/01/19 05:38:19;;;;;;;28.58;17.90;;;;;;;;;;7366858;19;20014;-77
2023/01/19 05:40:44;;;;;;;28.48;17.15;;;;;;;;;;7365551;19;20380;-77
2023/01/19 05:43:10;;;;;;;27.05;16.15;;;;;;;;;;7364428;19;20542;-77
2023/01/19 05:45:37;;;;;;;27.38;16.35;;;;;;;;;;7368498;19;20010;-77
2023/01/19 05:48:03;;;;;;;29.05;17.60;;;;;;;;;;7360742;19;20536;-78
2023/01/19 05:50:28;;;;;;;27.73;16.70;;;;;;;;;;7364187;19;20126;-77
2023/01/19 05:52:53;;;;;;;25.03;16.57;;;;;;;;;;7363230;19;20517;-77
2023/01/19 05:55:19;;;;;;;27.45;16.98;;;;;;;;;;7370252;19;20274;-77
2023/01/19 05:57:44;;;;;;;26.05;15.57;;;;;;;;;;7366308;19;20005;-76
2023/01/19 06:00:10;;;;;;;25.60;16.08;;;;;;;;;;7367192;19;20021;-78
2023/01/19 06:02:35;;;;;;;25.70;16.20;;;;;;;;;;7365861;19;20002;-77
2023/01/19 06:05:01;;;;;;;25.60;16.05;;;;;;;;;;7363347;19;20039;-77
2023/01/19 06:07:26;;;;;;;22.67;16.00;;;;;;;;;;7368772;19;19998;-78
2023/01/19 06:09:51;;;;;;;24.75;16.00;;;;;;;;;;7362200;19;20010;-77
2023/01/19 06:12:16;;;;;;;24.33;15.85;;;;;;;;;;7369445;19;19999;-77
2023/01/19 06:14:41;;;;;;;23.75;15.40;;;;;;;;;;7363079;19;20044;-77
2023/01/19 06:17:07;;;;;;;24.65;15.15;;;;;;;;;;7366160;19;20012;-77
2023/01/19 06:19:33;;;;;;;29.05;16.63;;;;;;;;;;7343847;19;20007;-76
2023/01/19 06:21:58;;;;;;;25.10;16.25;;;;;;;;;;7357113;19;20426;-77
2023/01/19 06:24:24;;;;;;;28.20;15.75;;;;;;;;;;7367880;19;20070;-78
2023/01/19 06:26:49;;;;;;;27.02;16.55;;;;;;;;;;7365991;19;20020;-77
2023/01/19 06:29:14;;;;;;;24.67;15.50;;;;;;;;;;7365533;19;20027;-76
2023/01/19 06:31:40;;;;;;;25.40;15.52;;;;;;;;;;7364275;19;20006;-77
2023/01/19 06:34:05;;;;;;;30.23;17.02;;;;;;;;;;7358989;19;20094;-76
2023/01/19 06:36:31;;;;;;;26.92;16.58;;;;;;;;;;7356997;19;20323;-77
2023/01/19 06:38:56;;;;;;;23.48;15.02;;;;;;;;;;7362594;19;20030;-78
2023/01/19 06:41:21;;;;;;;23.30;15.75;;;;;;;;;;7372257;19;19995;-77
2023/01/19 06:43:46;;;;;;;25.63;16.02;;;;;;;;;;7371893;19;20051;-79
2023/01/19 06:46:12;;;;;;;27.92;16.02;;;;;;;;;;7373894;19;20320;-77
2023/01/19 06:48:37;;;;;;;28.85;15.90;;;;;;;;;;7356374;19;20010;-79
2023/01/19 06:51:04;;;;;;;26.48;14.98;;;;;;;;;;7370632;19;19998;-77
2023/01/19 06:53:29;;;;;;;27.45;14.35;;;;;;;;;;7376027;19;20130;-77
2023/01/19 06:56:01;;;;;;;22.48;13.65;;;;;;;;;;7369575;19;20018;-77
2023/01/19 06:58:27;;;;;;;21.15;12.88;;;;;;;;;;7360203;19;20304;-76
2023/01/19 07:00:52;;;;;;;23.75;14.77;;;;;;;;;;7369813;19;20120;-76
2023/01/19 07:03:21;;;;;;;22.08;13.35;;;;;;;;;;7371522;19;20074;-79
2023/01/19 07:05:49;;;;;;;22.58;13.05;;;;;;;;;;7366388;19;20342;-77
2023/01/19 07:08:15;;;;;;;22.45;13.07;;;;;;;;;;7372804;19;20038;-83
2023/01/19 07:10:40;;;;;;;24.92;13.30;;;;;;;;;;7376445;19;20014;-79
2023/01/19 07:13:05;;;;;;;24.65;14.25;;;;;;;;;;7376228;19;20017;-77
2023/01/19 07:15:30;;;;;;;22.50;13.48;;;;;;;;;;7379548;19;20019;-78
2023/01/19 07:18:00;;;;;;;22.33;12.85;;;;;;;;;;7378077;19;20331;-77
2023/01/19 07:20:25;;;;;;;24.45;14.55;;;;;;;;;;7377541;19;20044;-78
2023/01/19 07:22:54;;;;;;;20.73;12.57;;;;;;;;;;7377149;19;20010;-80
2023/01/19 07:25:19;;;;;;;19.70;13.05;;;;;;;;;;7372737;19;20037;-78
2023/01/19 07:27:45;;;;;;;24.55;13.70;;;;;;;;;;7378670;19;20789;-79
2023/01/19 07:30:10;;;;;;;19.77;13.07;;;;;;;;;;7376184;19;20149;-80
2023/01/19 07:32:35;;;;;;;23.70;13.45;;;;;;;;;;7376895;19;20066;-79
2023/01/19 07:35:01;;;;;;;25.48;14.77;;;;;;;;;;7376037;19;20030;-80
2023/01/19 07:37:26;;;;;;;20.38;14.13;;;;;;;;;;7380390;19;20435;-79
2023/01/19 07:39:51;;;;;;;23.95;12.90;;;;;;;;;;7377927;19;20412;-80
2023/01/19 07:42:16;;;;;;;22.02;12.95;;;;;;;;;;7379578;19;20289;-78
2023/01/19 07:44:41;;;;;;;21.95;13.70;;;;;;;;;;7381264;19;20159;-79
2023/01/19 07:47:10;;;;;;;27.00;13.95;;;;;;;;;;7379117;19;20111;-79
2023/01/19 07:49:35;;;;;;;19.40;12.63;;;;;;;;;;7380283;19;20018;-78
2023/01/19 07:52:00;;;;;;;22.17;13.55;;;;;;;;;;7379478;19;20163;-79
2023/01/19 07:54:25;;;;;;;21.15;12.98;;;;;;;;;;7382650;19;20409;-78
2023/01/19 07:56:54;;;;;;;22.42;12.82;;;;;;;;;;7380209;19;20361;-78
2023/01/19 07:59:19;;;;;;;22.92;13.20;;;;;;;;;;7380757;19;20014;-77
2023/01/19 08:01:44;;;;;;;25.75;12.77;;;;;;;;;;7379292;19;20003;-79
2023/01/19 08:04:10;;;;;;;19.95;13.00;;;;;;;;;;7377469;19;19998;-78
2023/01/19 08:06:36;;;;;;;18.95;12.40;;;;;;;;;;7381053;19;20325;-77
2023/01/19 08:09:04;;;;;;;21.02;12.43;;;;;;;;;;7380637;19;19986;-77
2023/01/19 08:11:29;;;;;;;20.75;12.48;;;;;;;;;;7380819;19;20006;-79
2023/01/19 08:13:54;;;;;;;25.65;12.60;;;;;;;;;;7377111;19;20010;-78
2023/01/19 08:16:20;;;;;;;22.80;12.52;;;;;;;;;;7379457;19;20013;-79
2023/01/19 08:18:45;;;;;;;21.05;11.90;;;;;;;;;;7381099;19;20039;-78
2023/01/19 08:21:10;;;;;;;22.25;12.75;;;;;;;;;;7379435;19;20024;-77
2023/01/19 08:23:35;;;;;;;21.15;12.60;;;;;;;;;;7379087;19;20063;-78
2023/01/19 08:26:01;;;;;;;22.33;13.23;;;;;;;;;;7380052;19;20014;-78
2023/01/19 08:28:26;;;;;;;25.85;12.15;;;;;;;;;;7381204;19;20232;-81
2023/01/19 08:30:54;;;;;;;21.52;12.18;;;;;;;;;;7379205;19;20018;-79
2023/01/19 08:33:21;;;;;;;22.02;11.38;;;;;;;;;;7380418;19;20006;-79
2023/01/19 08:35:48;;;;;;;20.55;12.23;;;;;;;;;;7380204;19;20443;-81
2023/01/19 08:38:13;;;;;;;21.92;11.77;;;;;;;;;;7379058;19;20022;-79
2023/01/19 08:40:39;;;;;;;22.33;11.85;;;;;;;;;;7380820;19;20391;-78
2023/01/19 08:43:10;;;;;;;22.88;11.65;;;;;;;;;;7376496;19;20030;-78
2023/01/19 08:45:35;;;;;;;21.60;11.98;;;;;;;;;;7379359;19;20015;-78
2023/01/19 08:48:01;;;;;;;18.67;12.18;;;;;;;;;;7377486;19;19999;-79
2023/01/19 08:50:28;;;;;;;21.40;11.40;;;;;;;;;;7378054;19;20019;-79
2023/01/19 08:52:56;;;;;;;24.80;11.80;;;;;;;;;;7377508;19;19999;-79
2023/01/19 08:55:22;;;;;;;22.65;11.82;;;;;;;;;;7378586;19;20056;-78
2023/01/19 08:57:49;;;;;;;21.65;12.18;;;;;;;;;;7376842;19;20006;-78
2023/01/19 09:00:15;;;;;;;20.52;11.82;;;;;;;;;;7377313;19;20182;-78
2023/01/19 09:02:40;;;;;;;22.80;12.98;;;;;;;;;;7375475;19;20010;-78
2023/01/19 09:05:05;;;;;;;19.08;11.50;;;;;;;;;;7377083;19;20356;-80
2023/01/19 09:07:31;;;;;;;20.08;11.40;;;;;;;;;;7379084;19;19999;-80
2023/01/19 09:09:56;;;;;;;22.98;11.63;;;;;;;;;;7377434;19;20007;-79
2023/01/19 09:12:21;;;;;;;18.08;12.02;;;;;;;;;;7378795;19;20424;-78
2023/01/19 09:14:46;;;;;;;23.70;13.07;;;;;;;;;;7377628;19;20247;-77
2023/01/19 09:17:13;;;;;;;22.60;12.55;;;;;;;;;;7378604;19;20002;-78
2023/01/19 09:19:39;;;;;;;17.80;11.40;;;;;;;;;;7378303;19;20074;-78
2023/01/19 09:22:04;;;;;;;23.30;12.75;;;;;;;;;;7377104;19;20014;-78
2023/01/19 09:24:30;;;;;;;24.63;12.75;;;;;;;;;;7379402;19;20084;-78
2023/01/19 09:26:55;;;;;;;18.38;12.25;;;;;;;;;;7378031;19;20075;-79
2023/01/19 09:29:21;;;;;;;23.38;12.32;;;;;;;;;;7378871;19;20104;-81
2023/01/19 09:31:47;;;;;;;22.10;11.85;;;;;;;;;;7378109;19;20002;-78
2023/01/19 09:34:12;;;;;;;24.38;12.63;;;;;;;;;;7377184;19;20095;-79
2023/01/19 09:36:38;;;;;;;24.02;11.85;;;;;;;;;;7376513;19;20036;-78
2023/01/19 09:39:04;;;;;;;23.33;12.50;;;;;;;;;;7377000;19;19999;-78
2023/01/19 09:41:31;;;;;;;19.85;12.27;;;;;;;;;;7377666;19;20043;-78
2023/01/19 09:43:58;;;;;;;18.88;11.13;;;;;;;;;;7374006;19;20044;-81
2023/01/19 09:46:23;;;;;;;19.75;12.55;;;;;;;;;;7378295;19;20123;-78
2023/01/19 09:48:50;;;;;;;23.25;12.20;;;;;;;;;;7377161;19;20116;-80
2023/01/19 09:51:18;;;;;;;19.30;11.35;;;;;;;;;;7374923;19;20014;-78
2023/01/19 09:53:59;;;;;;;20.70;11.18;;;;;;;;;;7377228;19;20232;-78
2023/01/19 09:56:26;;;;;;;21.42;11.25;;;;;;;;;;7377258;19;20058;-80
2023/01/19 09:58:51;;;;;;;21.38;11.70;;;;;;;;;;7376465;19;20014;-81
2023/01/19 10:01:25;;;;;;;22.27;11.43;;;;;;;;;;7375644;19;20317;-78
2023/01/19 10:03:53;;;;;;;22.23;11.80;;;;;;;;;;7373568;19;20028;-79
2023/01/19 10:06:18;;;;;;;17.55;11.35;;;;;;;;;;7372706;19;19998;-80
2023/01/19 10:08:54;;;;;;;21.70;11.65;;;;;;;;;;7377370;19;20010;-78
2023/01/19 10:11:27;;;;;;;20.30;11.52;;;;;;;;;;7375852;19;20035;-80
2023/01/19 10:13:53;;;;;;;22.75;11.77;;;;;;;;;;7376906;19;20143;-82
2023/01/19 10:16:37;;;;;;;21.52;12.25;;;;;;;;;;7383142;19;20380;-78
2023/01/19 10:19:24;;;;;;;26.48;13.85;;;;;;;;;;7380713;19;20027;-79
2023/01/19 10:21:50;;;;;;;30.15;16.98;;;;;;;;;;7382988;19;20014;-79
2023/01/19 10:24:28;;;;;;;39.70;19.77;;;;;;;;;;7377085;19;20145;-80
2023/01/19 10:26:54;;;;;;;39.53;22.02;;;;;;;;;;7383008;19;20017;-81
2023/01/19 10:29:22;;;;;;;41.22;22.27;;;;;;;;;;7382651;19;20010;-79
2023/01/19 10:31:48;;;;;;;39.78;21.05;;;;;;;;;;7383259;19;20026;-82
2023/01/19 10:34:17;;;;;;;36.20;19.15;;;;;;;;;;7381650;19;20426;-78
2023/01/19 10:36:43;;;;;;;24.00;14.70;;;;;;;;;;7382859;19;19999;-80
2023/01/19 10:39:10;;;;;;;23.92;14.15;;;;;;;;;;7382574;19;20021;-80
2023/01/19 10:41:35;;;;;;;30.65;18.13;;;;;;;;;;7384724;19;20093;-79
2023/01/19 10:44:01;;;;;;;23.17;13.30;;;;;;;;;;7377884;19;20014;-80
2023/01/19 10:46:47;;;;;;;22.83;14.05;;;;;;;;;;7383795;19;20012;-79
2023/01/19 10:49:21;;;;;;;24.15;13.15;;;;;;;;;;7381546;19;20014;-78
2023/01/19 10:51:47;;;;;;;23.10;12.07;;;;;;;;;;7382463;19;20008;-77
2023/01/19 10:54:13;;;;;;;28.17;14.05;;;;;;;;;;7381600;19;20010;-78
2023/01/19 10:56:38;;;;;;;42.38;15.00;;;;;;;;;;7382152;19;20078;-77
2023/01/19 10:59:04;;;;;;;26.90;13.35;;;;;;;;;;7379532;19;20007;-78
2023/01/19 11:01:30;;;;;;;21.13;12.90;;;;;;;;;;7382012;19;20408;-77
2023/01/19 11:04:04;;;;;;;20.40;11.80;;;;;;;;;;7378941;19;20301;-78
2023/01/19 11:06:30;;;;;;;23.77;12.68;;;;;;;;;;7381461;19;20078;-78
2023/01/19 11:09:08;;;;;;;20.98;12.23;;;;;;;;;;7380134;19;20480;-78
2023/01/19 11:11:40;;;;;;;26.40;11.80;;;;;;;;;;7379743;19;20129;-77
2023/01/19 11:14:10;;;;;;;20.80;11.70;;;;;;;;;;7379116;19;20335;-78
2023/01/19 11:16:37;;;;;;;20.88;12.18;;;;;;;;;;7381756;19;20426;-78
2023/01/19 11:19:03;;;;;;;26.00;12.27;;;;;;;;;;7381522;19;20120;-78
2023/01/19 11:21:29;;;;;;;24.77;12.70;;;;;;;;;;7381186;19;20006;-77
2023/01/19 11:23:58;;;;;;;25.02;12.05;;;;;;;;;;7377808;19;20014;-78
2023/01/19 11:26:27;;;;;;;23.27;12.60;;;;;;;;;;7380168;19;20108;-77
2023/01/19 11:28:54;;;;;;;21.70;10.77;;;;;;;;;;7379136;19;20315;-78
2023/01/19 11:31:30;;;;;;;21.45;11.93;;;;;;;;;;7379780;19;20556;-77
2023/01/19 11:33:56;;;;;;;22.05;10.82;;;;;;;;;;7380539;19;20025;-78
2023/01/19 11:36:23;;;;;;;20.05;11.90;;;;;;;;;;7377729;19;20003;-79
2023/01/19 11:38:53;;;;;;;25.48;12.48;;;;;;;;;;7378820;19;20324;-77
2023/01/19 11:41:19;;;;;;;20.80;11.68;;;;;;;;;;7378004;19;19999;-77
2023/01/19 11:43:46;;;;;;;29.02;13.38;;;;;;;;;;7378205;19;20017;-77
2023/01/19 11:46:12;;;;;;;28.00;12.38;;;;;;;;;;7378812;19;20085;-78
2023/01/19 11:48:56;;;;;;;32.05;12.57;;;;;;;;;;7377542;19;20444;-78
2023/01/19 11:51:21;;;;;;;;;;;;;;;;;;7370923;19;20031;-77
2023/01/19 11:53:49;;;;;;;18.75;10.95;;;;;;;;;;7376930;19;19922;-80
2023/01/19 11:56:16;;;;;;;22.73;11.85;;;;;;;;;;7362800;19;20557;-77
2023/01/19 11:58:45;;;;;;;25.17;11.77;;;;;;;;;;7377972;19;20026;-78
2023/01/19 12:01:24;;;;;;;24.17;12.35;;;;;;;;;;7375074;19;20474;-79
2023/01/19 12:03:55;;;;;;;24.80;11.57;;;;;;;;;;7377787;19;20074;-76
2023/01/19 12:06:24;;;;;;;23.50;12.05;;;;;;;;;;7372337;19;20029;-77
2023/01/19 12:08:55;;;;;;;21.67;10.93;;;;;;;;;;7373844;19;20054;-79
2023/01/19 12:11:30;;;;;;;19.85;11.73;;;;;;;;;;7373112;19;20014;-82
2023/01/19 12:13:55;;;;;;;19.52;11.25;;;;;;;;;;7376646;19;20037;-83
2023/01/19 12:16:22;;;;;;;24.08;11.27;;;;;;;;;;7366365;19;20074;-77
2023/01/19 12:18:51;;;;;;;20.95;11.93;;;;;;;;;;7371729;19;20026;-77
2023/01/19 12:21:17;;;;;;;21.05;10.52;;;;;;;;;;7372876;19;19999;-77
2023/01/19 12:23:49;;;;;;;19.60;10.68;;;;;;;;;;7363615;19;20776;-81
2023/01/19 12:26:15;;;;;;;17.55;10.48;;;;;;;;;;7370206;19;20075;-77
2023/01/19 12:28:43;;;;;;;22.10;11.50;;;;;;;;;;7374278;19;20110;-76
2023/01/19 12:31:08;;;;;;;20.15;10.88;;;;;;;;;;7373671;19;20020;-77
2023/01/19 12:33:36;;;;;;;21.30;10.57;;;;;;;;;;7376929;19;20002;-77
2023/01/19 12:36:05;;;;;;;20.45;11.25;;;;;;;;;;7372500;19;20030;-77
2023/01/19 12:38:36;;;;;;;21.55;11.18;;;;;;;;;;7375329;19;19998;-78
2023/01/19 12:41:16;;;;;;;18.45;11.13;;;;;;;;;;7373961;19;20190;-79
2023/01/19 12:43:41;;;;;;;20.58;11.02;;;;;;;;;;7375515;19;20091;-76
2023/01/19 12:46:24;;;;;;;18.27;10.65;;;;;;;;;;7368906;19;19998;-79
2023/01/19 12:48:50;;;;;;;16.58;9.95;;;;;;;;;;7375493;19;20451;-76
2023/01/19 12:51:23;;;;;;;22.92;10.65;;;;;;;;;;7371978;19;20309;-77
2023/01/19 12:53:52;;;;;;;18.20;9.90;;;;;;;;;;7377069;19;20011;-76
2023/01/19 12:56:18;;;;;;;19.23;9.45;;;;;;;;;;7372414;19;20077;-77
2023/01/19 12:58:46;;;;;;;19.10;9.85;;;;;;;;;;7375364;19;20658;-78
2023/01/19 13:01:13;;;;;;;22.67;11.00;;;;;;;;;;7373396;19;20017;-78
2023/01/19 13:03:59;;;;;;;21.17;9.40;;;;;;;;;;7355436;19;20015;-79
2023/01/19 13:06:43;;;;;;;18.30;9.90;;;;;;;;;;7364381;19;20015;-77
2023/01/19 13:09:27;;;;;;;18.17;9.90;;;;;;;;;;7373204;19;20435;-77
2023/01/19 13:12:18;;;;;;;15.20;9.18;;;;;;;;;;7376062;19;20325;-78
2023/01/19 13:14:44;;;;;;;19.10;9.73;;;;;;;;;;7376674;19;20309;-77
2023/01/19 13:17:24;;;;;;;16.02;8.75;;;;;;;;;;7373722;19;20014;-77
2023/01/19 13:19:56;;;;;;;14.23;7.85;;;;;;;;;;7369236;19;20026;-78
2023/01/19 13:22:48;;;;;;;15.13;9.00;;;;;;;;;;7374014;19;20011;-78
2023/01/19 13:25:20;;;;;;;20.17;10.63;;;;;;;;;;7373661;19;20016;-78
2023/01/19 13:27:45;;;;;;;16.98;9.85;;;;;;;;;;7374815;19;20224;-77
2023/01/19 13:30:14;;;;;;;16.25;9.52;;;;;;;;;;7374071;19;20025;-76
2023/01/19 13:32:40;;;;;;;18.77;10.35;;;;;;;;;;7371723;19;20149;-77
2023/01/19 13:35:12;;;;;;;19.50;10.68;;;;;;;;;;7371019;19;20007;-79
2023/01/19 13:37:38;;;;;;;16.35;10.07;;;;;;;;;;7374648;19;20054;-77
2023/01/19 13:40:04;;;;;;;21.88;10.77;;;;;;;;;;7373095;19;20022;-79
2023/01/19 13:42:37;;;;;;;17.15;10.93;;;;;;;;;;7372348;19;19995;-77
2023/01/19 13:45:07;;;;;;;18.85;10.60;;;;;;;;;;7375175;19;20030;-78
2023/01/19 13:47:38;;;;;;;22.58;11.25;;;;;;;;;;7373294;19;20027;-78
2023/01/19 13:50:03;;;;;;;20.33;10.98;;;;;;;;;;7367073;19;20534;-81
2023/01/19 13:52:29;;;;;;;19.35;10.70;;;;;;;;;;7375012;19;19998;-78
2023/01/19 13:54:55;;;;;;;17.20;10.95;;;;;;;;;;7374599;19;20051;-77
2023/01/19 13:57:29;;;;;;;28.63;11.68;;;;;;;;;;7370561;19;20124;-78
2023/01/19 14:00:04;;;;;;;20.10;10.88;;;;;;;;;;7374114;19;20026;-78
2023/01/19 14:02:29;;;;;;;20.23;10.65;;;;;;;;;;7371154;19;20408;-77
2023/01/19 14:04:56;;;;;;;18.70;10.02;;;;;;;;;;7369247;19;20494;-80
2023/01/19 14:07:25;;;;;;;21.13;11.63;;;;;;;;;;7367851;19;20432;-78
2023/01/19 14:10:08;;;;;;;18.30;10.75;;;;;;;;;;7364529;19;20082;-79
2023/01/19 14:12:33;;;;;;;18.92;10.73;;;;;;;;;;7367787;19;20021;-78
2023/01/19 14:14:59;;;;;;;21.45;10.18;;;;;;;;;;7371132;19;20045;-78
2023/01/19 14:17:26;;;;;;;18.83;9.77;;;;;;;;;;7371234;19;20393;-78
2023/01/19 14:19:55;;;;;;;22.45;11.05;;;;;;;;;;7370345;19;20010;-78
2023/01/19 14:22:35;;;;;;;22.08;12.02;;;;;;;;;;7369841;19;20410;-78
2023/01/19 14:25:20;;;;;;;18.80;10.68;;;;;;;;;;7370585;19;20079;-78
2023/01/19 14:27:45;;;;;;;20.38;10.40;;;;;;;;;;7372721;19;20294;-77
2023/01/19 14:30:18;;;;;;;20.55;10.65;;;;;;;;;;7367802;19;20029;-81
2023/01/19 14:32:45;;;;;;;19.65;10.75;;;;;;;;;;7370679;19;20005;-77
2023/01/19 14:35:10;;;;;;;39.58;20.70;;;;;;;;;;7367178;19;20030;-78